sensor_id;sensor_type;location;lat;lon;timestamp;temperature;humidity
17994;DHT22;9122;48.406;9.984;2023-04-03T00:01:06;6.00;92.40
17994;DHT22;9122;48.406;9.984;2023-04-03T00:03:51;6.00;92.50
17994;DHT22;9122;48.406;9.984;2023-04-03T00:06:36;5.90;92.50
17994;DHT22;9122;48.406;9.984;2023-04-03T00:09:20;6.00;92.50
17994;DHT22;9122;48.406;9.984;2023-04-03T00:12:05;6.00;92.40
17994;DHT22;9122;48.406;9.984;2023-04-03T00:14:49;6.00;92.30
17994;DHT22;9122;48.406;9.984;2023-04-03T00:17:33;6.00;92.10
17994;DHT22;9122;48.406;9.984;2023-04-03T00:20:18;6.00;92.00
17994;DHT22;9122;48.406;9.984;2023-04-03T00:23:02;5.90;92.00
17994;DHT22;9122;48.406;9.984;2023-04-03T00:25:47;5.90;92.00
17994;DHT22;9122;48.406;9.984;2023-04-03T00:28:32;6.20;91.70
17994;DHT22;9122;48.406;9.984;2023-04-03T00:31:16;5.90;91.40
17994;DHT22;9122;48.406;9.984;2023-04-03T00:34:01;5.90;91.20
17994;DHT22;9122;48.406;9.984;2023-04-03T00:36:45;5.80;91.10
17994;DHT22;9122;48.406;9.984;2023-04-03T00:39:29;6.10;91.20
17994;DHT22;9122;48.406;9.984;2023-04-03T00:42:14;5.80;91.10
17994;DHT22;9122;48.406;9.984;2023-04-03T00:47:44;5.70;90.50
17994;DHT22;9122;48.406;9.984;2023-04-03T00:50:29;5.80;90.20
17994;DHT22;9122;48.406;9.984;2023-04-03T00:53:18;5.70;90.00
17994;DHT22;9122;48.406;9.984;2023-04-03T00:56:06;5.70;89.60
17994;DHT22;9122;48.406;9.984;2023-04-03T00:58:59;5.60;90.00
17994;DHT22;9122;48.406;9.984;2023-04-03T01:01:45;5.60;89.50
17994;DHT22;9122;48.406;9.984;2023-04-03T01:04:38;5.60;89.80
17994;DHT22;9122;48.406;9.984;2023-04-03T01:07:28;5.60;90.10
17994;DHT22;9122;48.406;9.984;2023-04-03T01:10:15;5.60;90.30
17994;DHT22;9122;48.406;9.984;2023-04-03T01:13:01;5.60;90.40
17994;DHT22;9122;48.406;9.984;2023-04-03T01:15:45;5.60;90.40
17994;DHT22;9122;48.406;9.984;2023-04-03T01:18:31;5.60;90.60
17994;DHT22;9122;48.406;9.984;2023-04-03T01:27:17;5.50;90.00
17994;DHT22;9122;48.406;9.984;2023-04-03T01:30:01;5.60;90.10
17994;DHT22;9122;48.406;9.984;2023-04-03T01:32:49;5.50;90.20
17994;DHT22;9122;48.406;9.984;2023-04-03T01:35:34;5.50;89.40
17994;DHT22;9122;48.406;9.984;2023-04-03T01:38:19;5.50;89.00
17994;DHT22;9122;48.406;9.984;2023-04-03T01:41:03;5.50;88.30
17994;DHT22;9122;48.406;9.984;2023-04-03T01:43:49;5.40;87.50
17994;DHT22;9122;48.406;9.984;2023-04-03T01:46:33;5.40;87.20
17994;DHT22;9122;48.406;9.984;2023-04-03T01:49:17;5.40;86.40
17994;DHT22;9122;48.406;9.984;2023-04-03T01:52:01;5.60;86.40
17994;DHT22;9122;48.406;9.984;2023-04-03T01:54:49;5.40;86.70
17994;DHT22;9122;48.406;9.984;2023-04-03T01:57:34;5.40;86.80
17994;DHT22;9122;48.406;9.984;2023-04-03T02:00:19;5.40;86.70
17994;DHT22;9122;48.406;9.984;2023-04-03T02:03:04;5.40;86.50
17994;DHT22;9122;48.406;9.984;2023-04-03T02:05:49;5.40;86.20
17994;DHT22;9122;48.406;9.984;2023-04-03T02:08:34;5.40;86.10
17994;DHT22;9122;48.406;9.984;2023-04-03T02:11:18;5.40;86.10
17994;DHT22;9122;48.406;9.984;2023-04-03T02:14:03;5.40;85.90
17994;DHT22;9122;48.406;9.984;2023-04-03T02:16:48;5.40;85.60
17994;DHT22;9122;48.406;9.984;2023-04-03T02:19:32;5.40;85.50
17994;DHT22;9122;48.406;9.984;2023-04-03T02:22:17;5.30;85.70
17994;DHT22;9122;48.406;9.984;2023-04-03T02:25:02;5.40;86.00
17994;DHT22;9122;48.406;9.984;2023-04-03T02:27:47;5.30;86.00
17994;DHT22;9122;48.406;9.984;2023-04-03T02:30:31;5.30;85.90
17994;DHT22;9122;48.406;9.984;2023-04-03T02:33:15;5.30;85.70
17994;DHT22;9122;48.406;9.984;2023-04-03T02:35:59;5.30;85.80
17994;DHT22;9122;48.406;9.984;2023-04-03T02:38:44;5.30;85.80
17994;DHT22;9122;48.406;9.984;2023-04-03T02:41:29;5.30;85.60
17994;DHT22;9122;48.406;9.984;2023-04-03T02:44:18;5.30;85.40
17994;DHT22;9122;48.406;9.984;2023-04-03T02:47:03;5.30;85.70
17994;DHT22;9122;48.406;9.984;2023-04-03T02:49:48;5.30;86.00
17994;DHT22;9122;48.406;9.984;2023-04-03T02:52:32;5.30;86.30
17994;DHT22;9122;48.406;9.984;2023-04-03T02:55:17;5.30;86.70
17994;DHT22;9122;48.406;9.984;2023-04-03T02:58:01;5.30;87.00
17994;DHT22;9122;48.406;9.984;2023-04-03T03:00:47;5.30;87.50
17994;DHT22;9122;48.406;9.984;2023-04-03T03:03:31;5.20;87.80
17994;DHT22;9122;48.406;9.984;2023-04-03T03:06:16;5.20;88.70
17994;DHT22;9122;48.406;9.984;2023-04-03T03:09:01;5.20;88.20
17994;DHT22;9122;48.406;9.984;2023-04-03T03:11:46;5.20;87.80
17994;DHT22;9122;48.406;9.984;2023-04-03T03:14:29;5.20;87.80
17994;DHT22;9122;48.406;9.984;2023-04-03T03:17:14;5.20;88.00
17994;DHT22;9122;48.406;9.984;2023-04-03T03:19:59;5.20;88.00
17994;DHT22;9122;48.406;9.984;2023-04-03T03:22:43;5.20;86.80
17994;DHT22;9122;48.406;9.984;2023-04-03T03:25:28;5.10;86.00
17994;DHT22;9122;48.406;9.984;2023-04-03T03:28:13;5.10;86.50
17994;DHT22;9122;48.406;9.984;2023-04-03T03:30:58;5.10;84.70
17994;DHT22;9122;48.406;9.984;2023-04-03T03:33:43;5.10;83.70
17994;DHT22;9122;48.406;9.984;2023-04-03T03:36:27;5.10;83.40
17994;DHT22;9122;48.406;9.984;2023-04-03T03:39:12;5.10;83.10
17994;DHT22;9122;48.406;9.984;2023-04-03T03:41:57;5.10;83.10
17994;DHT22;9122;48.406;9.984;2023-04-03T03:44:41;5.00;82.50
17994;DHT22;9122;48.406;9.984;2023-04-03T03:47:26;5.00;82.50
17994;DHT22;9122;48.406;9.984;2023-04-03T03:50:10;4.90;83.30
17994;DHT22;9122;48.406;9.984;2023-04-03T03:52:55;5.00;82.50
17994;DHT22;9122;48.406;9.984;2023-04-03T03:55:39;5.00;82.50
17994;DHT22;9122;48.406;9.984;2023-04-03T03:58:24;5.00;82.50
17994;DHT22;9122;48.406;9.984;2023-04-03T04:01:09;5.00;82.70
17994;DHT22;9122;48.406;9.984;2023-04-03T04:03:53;5.00;82.90
17994;DHT22;9122;48.406;9.984;2023-04-03T04:06:38;5.00;83.00
17994;DHT22;9122;48.406;9.984;2023-04-03T04:09:23;4.90;83.30
17994;DHT22;9122;48.406;9.984;2023-04-03T04:12:07;5.00;83.60
17994;DHT22;9122;48.406;9.984;2023-04-03T04:14:52;4.90;83.80
17994;DHT22;9122;48.406;9.984;2023-04-03T04:17:36;5.00;84.00
17994;DHT22;9122;48.406;9.984;2023-04-03T04:20:21;5.00;84.00
17994;DHT22;9122;48.406;9.984;2023-04-03T04:23:05;4.90;84.00
17994;DHT22;9122;48.406;9.984;2023-04-03T04:25:50;5.30;84.10
17994;DHT22;9122;48.406;9.984;2023-04-03T04:28:35;5.00;83.70
17994;DHT22;9122;48.406;9.984;2023-04-03T04:31:19;4.80;83.40
17994;DHT22;9122;48.406;9.984;2023-04-03T04:34:03;5.00;83.60
17994;DHT22;9122;48.406;9.984;2023-04-03T04:36:47;5.00;83.80
17994;DHT22;9122;48.406;9.984;2023-04-03T04:39:31;5.00;84.10
17994;DHT22;9122;48.406;9.984;2023-04-03T04:42:17;5.00;84.20
17994;DHT22;9122;48.406;9.984;2023-04-03T04:45:02;5.00;84.60
17994;DHT22;9122;48.406;9.984;2023-04-03T04:47:46;5.00;84.80
17994;DHT22;9122;48.406;9.984;2023-04-03T04:50:31;4.90;85.10
17994;DHT22;9122;48.406;9.984;2023-04-03T04:53:15;4.90;85.30
17994;DHT22;9122;48.406;9.984;2023-04-03T04:55:59;4.90;85.50
17994;DHT22;9122;48.406;9.984;2023-04-03T04:58:44;4.90;85.60
17994;DHT22;9122;48.406;9.984;2023-04-03T05:01:28;4.90;85.80
17994;DHT22;9122;48.406;9.984;2023-04-03T05:04:13;4.90;86.00
17994;DHT22;9122;48.406;9.984;2023-04-03T05:06:57;4.90;86.10
17994;DHT22;9122;48.406;9.984;2023-04-03T05:09:41;4.90;86.30
17994;DHT22;9122;48.406;9.984;2023-04-03T05:12:26;4.80;86.40
17994;DHT22;9122;48.406;9.984;2023-04-03T05:15:11;4.80;86.60
17994;DHT22;9122;48.406;9.984;2023-04-03T05:17:55;4.90;87.00
17994;DHT22;9122;48.406;9.984;2023-04-03T05:20:39;4.80;87.20
17994;DHT22;9122;48.406;9.984;2023-04-03T05:23:24;4.80;87.30
17994;DHT22;9122;48.406;9.984;2023-04-03T05:26:09;5.10;87.60
17994;DHT22;9122;48.406;9.984;2023-04-03T05:28:53;4.80;87.40
17994;DHT22;9122;48.406;9.984;2023-04-03T05:31:38;4.80;87.50
17994;DHT22;9122;48.406;9.984;2023-04-03T05:34:22;5.00;87.80
17994;DHT22;9122;48.406;9.984;2023-04-03T05:37:06;4.70;87.70
17994;DHT22;9122;48.406;9.984;2023-04-03T05:39:51;4.70;87.80
17994;DHT22;9122;48.406;9.984;2023-04-03T05:42:35;4.70;88.00
17994;DHT22;9122;48.406;9.984;2023-04-03T05:45:20;4.70;88.10
17994;DHT22;9122;48.406;9.984;2023-04-03T05:48:04;4.70;88.00
17994;DHT22;9122;48.406;9.984;2023-04-03T05:50:49;4.70;88.20
17994;DHT22;9122;48.406;9.984;2023-04-03T05:53:39;4.80;88.30
17994;DHT22;9122;48.406;9.984;2023-04-03T05:56:24;4.80;88.40
17994;DHT22;9122;48.406;9.984;2023-04-03T05:59:08;4.70;88.40
17994;DHT22;9122;48.406;9.984;2023-04-03T06:01:53;4.70;88.60
17994;DHT22;9122;48.406;9.984;2023-04-03T06:04:37;4.60;88.90
17994;DHT22;9122;48.406;9.984;2023-04-03T06:07:24;4.70;89.20
17994;DHT22;9122;48.406;9.984;2023-04-03T06:10:12;4.60;89.30
17994;DHT22;9122;48.406;9.984;2023-04-03T06:12:57;4.60;89.50
17994;DHT22;9122;48.406;9.984;2023-04-03T06:15:42;4.60;89.50
17994;DHT22;9122;48.406;9.984;2023-04-03T06:18:27;4.60;89.70
17994;DHT22;9122;48.406;9.984;2023-04-03T06:21:11;4.60;90.00
17994;DHT22;9122;48.406;9.984;2023-04-03T06:23:56;4.50;90.00
17994;DHT22;9122;48.406;9.984;2023-04-03T06:26:40;4.50;90.10
17994;DHT22;9122;48.406;9.984;2023-04-03T06:29:25;4.80;90.30
17994;DHT22;9122;48.406;9.984;2023-04-03T06:32:09;4.60;90.20
17994;DHT22;9122;48.406;9.984;2023-04-03T06:34:54;4.60;90.20
17994;DHT22;9122;48.406;9.984;2023-04-03T06:37:39;4.50;90.30
17994;DHT22;9122;48.406;9.984;2023-04-03T06:40:25;4.50;90.50
17994;DHT22;9122;48.406;9.984;2023-04-03T06:43:10;4.50;90.50
17994;DHT22;9122;48.406;9.984;2023-04-03T06:45:55;4.50;90.50
17994;DHT22;9122;48.406;9.984;2023-04-03T06:48:40;4.50;90.50
17994;DHT22;9122;48.406;9.984;2023-04-03T06:51:26;4.20;90.50
17994;DHT22;9122;48.406;9.984;2023-04-03T06:54:12;4.50;90.60
17994;DHT22;9122;48.406;9.984;2023-04-03T06:56:56;4.50;90.70
17994;DHT22;9122;48.406;9.984;2023-04-03T06:59:41;4.90;90.80
17994;DHT22;9122;48.406;9.984;2023-04-03T07:02:25;4.50;90.70
17994;DHT22;9122;48.406;9.984;2023-04-03T07:05:10;4.50;90.80
17994;DHT22;9122;48.406;9.984;2023-04-03T07:07:55;4.40;90.80
17994;DHT22;9122;48.406;9.984;2023-04-03T07:10:40;4.50;90.80
17994;DHT22;9122;48.406;9.984;2023-04-03T07:13:24;4.50;90.80
17994;DHT22;9122;48.406;9.984;2023-04-03T07:16:09;4.40;90.80
17994;DHT22;9122;48.406;9.984;2023-04-03T07:18:53;4.40;90.80
17994;DHT22;9122;48.406;9.984;2023-04-03T07:21:38;4.50;90.80
17994;DHT22;9122;48.406;9.984;2023-04-03T07:24:23;4.40;90.70
17994;DHT22;9122;48.406;9.984;2023-04-03T07:27:07;4.40;90.80
17994;DHT22;9122;48.406;9.984;2023-04-03T07:29:52;4.40;90.90
17994;DHT22;9122;48.406;9.984;2023-04-03T07:32:37;4.40;90.90
17994;DHT22;9122;48.406;9.984;2023-04-03T07:35:22;4.60;91.70
17994;DHT22;9122;48.406;9.984;2023-04-03T07:38:07;4.40;91.10
17994;DHT22;9122;48.406;9.984;2023-04-03T07:40:51;4.40;91.00
17994;DHT22;9122;48.406;9.984;2023-04-03T07:43:37;4.40;91.10
17994;DHT22;9122;48.406;9.984;2023-04-03T07:46:21;4.40;91.20
17994;DHT22;9122;48.406;9.984;2023-04-03T07:49:06;4.40;91.30
17994;DHT22;9122;48.406;9.984;2023-04-03T07:51:50;4.40;91.30
17994;DHT22;9122;48.406;9.984;2023-04-03T07:54:35;4.40;91.30
17994;DHT22;9122;48.406;9.984;2023-04-03T07:57:20;4.50;91.20
17994;DHT22;9122;48.406;9.984;2023-04-03T08:00:05;4.60;91.30
17994;DHT22;9122;48.406;9.984;2023-04-03T08:02:50;4.60;91.10
17994;DHT22;9122;48.406;9.984;2023-04-03T08:05:40;4.60;91.10
17994;DHT22;9122;48.406;9.984;2023-04-03T08:08:25;4.60;91.20
17994;DHT22;9122;48.406;9.984;2023-04-03T08:11:11;4.60;91.20
17994;DHT22;9122;48.406;9.984;2023-04-03T08:13:56;5.00;91.20
17994;DHT22;9122;48.406;9.984;2023-04-03T08:16:40;4.70;91.20
17994;DHT22;9122;48.406;9.984;2023-04-03T08:19:27;4.70;91.30
17994;DHT22;9122;48.406;9.984;2023-04-03T08:22:12;4.70;91.10
17994;DHT22;9122;48.406;9.984;2023-04-03T08:24:56;4.80;91.10
17994;DHT22;9122;48.406;9.984;2023-04-03T08:27:41;4.80;91.10
17994;DHT22;9122;48.406;9.984;2023-04-03T08:30:26;4.90;91.20
17994;DHT22;9122;48.406;9.984;2023-04-03T08:33:10;4.90;90.90
17994;DHT22;9122;48.406;9.984;2023-04-03T08:35:55;5.00;90.70
17994;DHT22;9122;48.406;9.984;2023-04-03T08:38:43;5.00;90.80
17994;DHT22;9122;48.406;9.984;2023-04-03T08:41:35;5.80;91.10
17994;DHT22;9122;48.406;9.984;2023-04-03T08:47:23;5.00;91.00
17994;DHT22;9122;48.406;9.984;2023-04-03T08:50:18;5.00;90.90
17994;DHT22;9122;48.406;9.984;2023-04-03T08:53:03;5.00;90.80
17994;DHT22;9122;48.406;9.984;2023-04-03T08:55:51;5.00;90.50
17994;DHT22;9122;48.406;9.984;2023-04-03T08:58:58;5.10;90.50
17994;DHT22;9122;48.406;9.984;2023-04-03T09:01:45;5.10;90.60
17994;DHT22;9122;48.406;9.984;2023-04-03T09:04:31;5.10;90.50
17994;DHT22;9122;48.406;9.984;2023-04-03T09:07:25;5.10;90.60
17994;DHT22;9122;48.406;9.984;2023-04-03T09:10:19;5.10;90.70
17994;DHT22;9122;48.406;9.984;2023-04-03T09:16:25;5.20;90.60
17994;DHT22;9122;48.406;9.984;2023-04-03T09:22:21;5.20;90.20
17994;DHT22;9122;48.406;9.984;2023-04-03T09:25:36;5.20;90.20
17994;DHT22;9122;48.406;9.984;2023-04-03T09:28:21;5.30;90.40
17994;DHT22;9122;48.406;9.984;2023-04-03T09:34:04;5.40;90.40
17994;DHT22;9122;48.406;9.984;2023-04-03T09:36:53;5.40;89.70
17994;DHT22;9122;48.406;9.984;2023-04-03T09:39:54;5.40;89.80
17994;DHT22;9122;48.406;9.984;2023-04-03T09:42:41;5.40;89.60
17994;DHT22;9122;48.406;9.984;2023-04-03T09:45:29;5.90;89.80
17994;DHT22;9122;48.406;9.984;2023-04-03T09:51:02;5.50;89.50
17994;DHT22;9122;48.406;9.984;2023-04-03T09:53:47;5.40;89.10
17994;DHT22;9122;48.406;9.984;2023-04-03T09:56:32;5.30;89.20
17994;DHT22;9122;48.406;9.984;2023-04-03T09:59:19;5.30;89.20
17994;DHT22;9122;48.406;9.984;2023-04-03T10:02:23;5.30;88.80
17994;DHT22;9122;48.406;9.984;2023-04-03T10:05:40;5.30;89.10
17994;DHT22;9122;48.406;9.984;2023-04-03T10:11:14;5.30;88.70
17994;DHT22;9122;48.406;9.984;2023-04-03T10:14:02;5.30;89.10
17994;DHT22;9122;48.406;9.984;2023-04-03T10:17:02;5.30;89.50
17994;DHT22;9122;48.406;9.984;2023-04-03T10:19:48;5.30;89.30
17994;DHT22;9122;48.406;9.984;2023-04-03T10:22:39;5.30;88.70
17994;DHT22;9122;48.406;9.984;2023-04-03T10:25:33;5.40;88.20
17994;DHT22;9122;48.406;9.984;2023-04-03T10:31:18;5.40;88.10
17994;DHT22;9122;48.406;9.984;2023-04-03T10:37:21;5.40;88.40
17994;DHT22;9122;48.406;9.984;2023-04-03T10:43:14;5.50;87.00
17994;DHT22;9122;48.406;9.984;2023-04-03T10:46:04;5.50;85.50
17994;DHT22;9122;48.406;9.984;2023-04-03T10:51:44;5.50;84.40
17994;DHT22;9122;48.406;9.984;2023-04-03T10:54:38;5.60;85.10
17994;DHT22;9122;48.406;9.984;2023-04-03T10:57:24;5.60;84.70
17994;DHT22;9122;48.406;9.984;2023-04-03T11:00:41;5.60;84.90
17994;DHT22;9122;48.406;9.984;2023-04-03T11:03:35;5.60;84.90
17994;DHT22;9122;48.406;9.984;2023-04-03T11:06:22;5.60;86.30
17994;DHT22;9122;48.406;9.984;2023-04-03T11:09:31;5.60;88.00
17994;DHT22;9122;48.406;9.984;2023-04-03T11:15:15;5.70;89.20
17994;DHT22;9122;48.406;9.984;2023-04-03T11:18:11;5.70;89.50
17994;DHT22;9122;48.406;9.984;2023-04-03T11:21:08;5.70;89.50
17994;DHT22;9122;48.406;9.984;2023-04-03T11:23:56;5.80;89.80
17994;DHT22;9122;48.406;9.984;2023-04-03T11:26:42;5.80;90.00
17994;DHT22;9122;48.406;9.984;2023-04-03T11:29:36;5.90;90.00
17994;DHT22;9122;48.406;9.984;2023-04-03T11:35:25;5.90;89.50
17994;DHT22;9122;48.406;9.984;2023-04-03T11:38:49;6.00;89.30
17994;DHT22;9122;48.406;9.984;2023-04-03T11:41:28;6.00;88.80
17994;DHT22;9122;48.406;9.984;2023-04-03T11:44:32;6.10;87.50
17994;DHT22;9122;48.406;9.984;2023-04-03T11:47:49;6.10;87.10
17994;DHT22;9122;48.406;9.984;2023-04-03T11:53:35;6.10;86.40
17994;DHT22;9122;48.406;9.984;2023-04-03T12:01:57;6.00;86.20
17994;DHT22;9122;48.406;9.984;2023-04-03T12:08:27;6.10;86.30
17994;DHT22;9122;48.406;9.984;2023-04-03T12:19:39;6.10;86.30
17994;DHT22;9122;48.406;9.984;2023-04-03T12:22:27;6.10;86.20
17994;DHT22;9122;48.406;9.984;2023-04-03T12:25:47;6.10;86.20
17994;DHT22;9122;48.406;9.984;2023-04-03T12:28:37;6.00;85.60
17994;DHT22;9122;48.406;9.984;2023-04-03T12:31:25;6.10;85.60
17994;DHT22;9122;48.406;9.984;2023-04-03T12:46:46;6.00;84.60
17994;DHT22;9122;48.406;9.984;2023-04-03T12:49:42;6.00;84.80
17994;DHT22;9122;48.406;9.984;2023-04-03T12:52:37;6.10;84.30
17994;DHT22;9122;48.406;9.984;2023-04-03T12:55:24;6.10;84.10
17994;DHT22;9122;48.406;9.984;2023-04-03T12:58:24;6.10;84.30
17994;DHT22;9122;48.406;9.984;2023-04-03T13:01:13;6.10;84.00
17994;DHT22;9122;48.406;9.984;2023-04-03T13:03:58;6.10;84.10
17994;DHT22;9122;48.406;9.984;2023-04-03T13:06:43;6.10;83.90
17994;DHT22;9122;48.406;9.984;2023-04-03T13:09:32;6.20;83.70
17994;DHT22;9122;48.406;9.984;2023-04-03T13:12:16;6.10;83.10
17994;DHT22;9122;48.406;9.984;2023-04-03T13:15:16;6.10;83.70
17994;DHT22;9122;48.406;9.984;2023-04-03T13:18:02;6.10;82.70
17994;DHT22;9122;48.406;9.984;2023-04-03T13:20:48;6.10;82.10
17994;DHT22;9122;48.406;9.984;2023-04-03T13:23:35;6.10;81.60
17994;DHT22;9122;48.406;9.984;2023-04-03T13:26:22;6.10;82.30
17994;DHT22;9122;48.406;9.984;2023-04-03T13:29:29;6.10;82.10
17994;DHT22;9122;48.406;9.984;2023-04-03T13:32:20;6.10;81.60
17994;DHT22;9122;48.406;9.984;2023-04-03T13:35:29;6.10;81.20
17994;DHT22;9122;48.406;9.984;2023-04-03T13:41:05;6.10;81.10
17994;DHT22;9122;48.406;9.984;2023-04-03T13:43:49;6.10;81.10
17994;DHT22;9122;48.406;9.984;2023-04-03T13:46:34;6.20;81.30
17994;DHT22;9122;48.406;9.984;2023-04-03T13:55:33;6.20;79.90
17994;DHT22;9122;48.406;9.984;2023-04-03T13:58:26;6.20;79.00
17994;DHT22;9122;48.406;9.984;2023-04-03T14:04:00;6.20;80.40
17994;DHT22;9122;48.406;9.984;2023-04-03T14:06:46;6.20;80.60
17994;DHT22;9122;48.406;9.984;2023-04-03T14:09:30;6.20;80.10
17994;DHT22;9122;48.406;9.984;2023-04-03T14:15:04;6.20;79.30
17994;DHT22;9122;48.406;9.984;2023-04-03T14:17:50;6.30;79.00
17994;DHT22;9122;48.406;9.984;2023-04-03T14:20:36;6.40;78.50
17994;DHT22;9122;48.406;9.984;2023-04-03T14:23:21;6.40;78.80
17994;DHT22;9122;48.406;9.984;2023-04-03T14:26:32;6.50;77.40
17994;DHT22;9122;48.406;9.984;2023-04-03T14:29:17;6.40;77.60
17994;DHT22;9122;48.406;9.984;2023-04-03T14:32:02;6.50;78.00
17994;DHT22;9122;48.406;9.984;2023-04-03T14:34:47;6.50;78.00
17994;DHT22;9122;48.406;9.984;2023-04-03T14:37:32;6.50;77.50
17994;DHT22;9122;48.406;9.984;2023-04-03T14:40:21;6.50;77.20
17994;DHT22;9122;48.406;9.984;2023-04-03T14:43:09;6.50;77.20
17994;DHT22;9122;48.406;9.984;2023-04-03T14:45:54;6.60;77.00
17994;DHT22;9122;48.406;9.984;2023-04-03T14:48:39;6.60;77.10
17994;DHT22;9122;48.406;9.984;2023-04-03T14:51:24;6.60;77.10
17994;DHT22;9122;48.406;9.984;2023-04-03T14:54:18;6.60;76.10
17994;DHT22;9122;48.406;9.984;2023-04-03T14:57:08;6.60;76.10
17994;DHT22;9122;48.406;9.984;2023-04-03T14:59:55;6.60;76.30
17994;DHT22;9122;48.406;9.984;2023-04-03T15:02:40;6.50;76.50
17994;DHT22;9122;48.406;9.984;2023-04-03T15:05:25;6.60;76.10
17994;DHT22;9122;48.406;9.984;2023-04-03T15:08:22;6.50;76.00
17994;DHT22;9122;48.406;9.984;2023-04-03T15:11:10;6.50;75.70
17994;DHT22;9122;48.406;9.984;2023-04-03T15:13:54;6.50;75.30
17994;DHT22;9122;48.406;9.984;2023-04-03T15:16:39;6.50;74.80
17994;DHT22;9122;48.406;9.984;2023-04-03T15:19:23;6.40;74.80
17994;DHT22;9122;48.406;9.984;2023-04-03T15:22:20;6.40;75.00
17994;DHT22;9122;48.406;9.984;2023-04-03T15:25:06;6.50;74.60
17994;DHT22;9122;48.406;9.984;2023-04-03T15:27:50;6.40;74.70
17994;DHT22;9122;48.406;9.984;2023-04-03T15:30:36;6.40;75.00
17994;DHT22;9122;48.406;9.984;2023-04-03T15:33:23;6.40;74.60
17994;DHT22;9122;48.406;9.984;2023-04-03T15:36:07;6.50;74.90
17994;DHT22;9122;48.406;9.984;2023-04-03T15:38:52;6.40;74.60
17994;DHT22;9122;48.406;9.984;2023-04-03T15:41:36;6.50;73.30
17994;DHT22;9122;48.406;9.984;2023-04-03T15:44:21;6.50;72.50
17994;DHT22;9122;48.406;9.984;2023-04-03T15:47:06;6.50;71.60
17994;DHT22;9122;48.406;9.984;2023-04-03T15:49:51;6.60;72.00
17994;DHT22;9122;48.406;9.984;2023-04-03T15:52:35;6.50;72.30
17994;DHT22;9122;48.406;9.984;2023-04-03T15:55:21;6.50;72.60
17994;DHT22;9122;48.406;9.984;2023-04-03T15:58:09;6.60;72.80
17994;DHT22;9122;48.406;9.984;2023-04-03T16:00:54;6.60;72.50
17994;DHT22;9122;48.406;9.984;2023-04-03T16:03:41;6.60;72.70
17994;DHT22;9122;48.406;9.984;2023-04-03T16:06:29;6.60;72.40
17994;DHT22;9122;48.406;9.984;2023-04-03T16:09:14;6.50;72.00
17994;DHT22;9122;48.406;9.984;2023-04-03T16:11:59;6.50;70.60
17994;DHT22;9122;48.406;9.984;2023-04-03T16:14:44;6.60;70.30
17994;DHT22;9122;48.406;9.984;2023-04-03T16:17:29;6.50;69.50
17994;DHT22;9122;48.406;9.984;2023-04-03T16:20:14;6.50;69.60
17994;DHT22;9122;48.406;9.984;2023-04-03T16:23:00;6.80;69.50
17994;DHT22;9122;48.406;9.984;2023-04-03T16:25:45;6.50;68.30
17994;DHT22;9122;48.406;9.984;2023-04-03T16:28:30;6.60;68.60
17994;DHT22;9122;48.406;9.984;2023-04-03T16:31:15;6.50;69.00
17994;DHT22;9122;48.406;9.984;2023-04-03T16:34:00;6.50;69.60
17994;DHT22;9122;48.406;9.984;2023-04-03T16:36:45;6.50;70.00
17994;DHT22;9122;48.406;9.984;2023-04-03T16:39:29;6.40;70.30
17994;DHT22;9122;48.406;9.984;2023-04-03T16:42:13;6.40;70.50
17994;DHT22;9122;48.406;9.984;2023-04-03T16:44:58;6.40;70.40
17994;DHT22;9122;48.406;9.984;2023-04-03T16:47:44;6.40;70.70
17994;DHT22;9122;48.406;9.984;2023-04-03T16:50:29;6.40;70.70
17994;DHT22;9122;48.406;9.984;2023-04-03T16:53:14;6.40;70.80
17994;DHT22;9122;48.406;9.984;2023-04-03T16:55:58;6.40;71.20
17994;DHT22;9122;48.406;9.984;2023-04-03T16:58:43;6.40;71.20
17994;DHT22;9122;48.406;9.984;2023-04-03T17:01:27;6.60;71.00
17994;DHT22;9122;48.406;9.984;2023-04-03T17:04:11;6.40;70.60
17994;DHT22;9122;48.406;9.984;2023-04-03T17:06:59;6.30;70.30
17994;DHT22;9122;48.406;9.984;2023-04-03T17:09:50;6.40;70.60
17994;DHT22;9122;48.406;9.984;2023-04-03T17:12:35;6.40;70.70
17994;DHT22;9122;48.406;9.984;2023-04-03T17:15:19;6.40;69.20
17994;DHT22;9122;48.406;9.984;2023-04-03T17:18:04;6.40;68.70
17994;DHT22;9122;48.406;9.984;2023-04-03T17:20:48;6.40;68.90
17994;DHT22;9122;48.406;9.984;2023-04-03T17:23:34;6.30;68.70
17994;DHT22;9122;48.406;9.984;2023-04-03T17:26:20;6.30;68.60
17994;DHT22;9122;48.406;9.984;2023-04-03T17:29:05;6.30;68.70
17994;DHT22;9122;48.406;9.984;2023-04-03T17:31:50;6.30;68.90
17994;DHT22;9122;48.406;9.984;2023-04-03T17:34:34;6.30;69.10
17994;DHT22;9122;48.406;9.984;2023-04-03T17:37:19;6.30;69.30
17994;DHT22;9122;48.406;9.984;2023-04-03T17:40:05;6.30;69.50
17994;DHT22;9122;48.406;9.984;2023-04-03T17:42:49;6.30;70.00
17994;DHT22;9122;48.406;9.984;2023-04-03T17:45:34;6.30;70.60
17994;DHT22;9122;48.406;9.984;2023-04-03T17:48:19;6.30;71.00
17994;DHT22;9122;48.406;9.984;2023-04-03T17:51:14;6.30;71.10
17994;DHT22;9122;48.406;9.984;2023-04-03T17:53:59;6.30;71.20
17994;DHT22;9122;48.406;9.984;2023-04-03T17:56:44;6.30;71.30
17994;DHT22;9122;48.406;9.984;2023-04-03T17:59:31;6.40;71.10
17994;DHT22;9122;48.406;9.984;2023-04-03T18:02:18;6.50;70.90
17994;DHT22;9122;48.406;9.984;2023-04-03T18:05:03;6.20;70.80
17994;DHT22;9122;48.406;9.984;2023-04-03T18:07:47;6.20;70.50
17994;DHT22;9122;48.406;9.984;2023-04-03T18:10:35;6.20;70.20
17994;DHT22;9122;48.406;9.984;2023-04-03T18:13:20;6.20;70.30
17994;DHT22;9122;48.406;9.984;2023-04-03T18:16:07;6.20;70.30
17994;DHT22;9122;48.406;9.984;2023-04-03T18:18:51;6.20;70.40
17994;DHT22;9122;48.406;9.984;2023-04-03T18:21:35;6.20;70.20
17994;DHT22;9122;48.406;9.984;2023-04-03T18:24:21;6.20;70.20
17994;DHT22;9122;48.406;9.984;2023-04-03T18:27:12;6.20;70.10
17994;DHT22;9122;48.406;9.984;2023-04-03T18:30:00;6.20;70.10
17994;DHT22;9122;48.406;9.984;2023-04-03T18:32:45;6.10;70.10
17994;DHT22;9122;48.406;9.984;2023-04-03T18:35:30;6.10;70.20
17994;DHT22;9122;48.406;9.984;2023-04-03T18:38:15;6.10;70.20
17994;DHT22;9122;48.406;9.984;2023-04-03T18:41:00;6.10;70.20
17994;DHT22;9122;48.406;9.984;2023-04-03T18:43:45;6.10;70.40
17994;DHT22;9122;48.406;9.984;2023-04-03T18:46:31;6.10;70.70
17994;DHT22;9122;48.406;9.984;2023-04-03T18:49:16;6.10;71.30
17994;DHT22;9122;48.406;9.984;2023-04-03T18:52:01;6.00;71.50
17994;DHT22;9122;48.406;9.984;2023-04-03T18:54:46;6.00;71.80
17994;DHT22;9122;48.406;9.984;2023-04-03T18:57:30;6.00;72.00
17994;DHT22;9122;48.406;9.984;2023-04-03T19:00:16;6.00;72.00
17994;DHT22;9122;48.406;9.984;2023-04-03T19:03:00;6.00;72.10
17994;DHT22;9122;48.406;9.984;2023-04-03T19:05:45;6.40;72.50
17994;DHT22;9122;48.406;9.984;2023-04-03T19:08:30;5.90;72.40
17994;DHT22;9122;48.406;9.984;2023-04-03T19:11:14;5.90;72.70
17994;DHT22;9122;48.406;9.984;2023-04-03T19:13:59;5.90;72.90
17994;DHT22;9122;48.406;9.984;2023-04-03T19:16:43;5.90;73.20
17994;DHT22;9122;48.406;9.984;2023-04-03T19:19:28;5.90;73.60
17994;DHT22;9122;48.406;9.984;2023-04-03T19:22:13;5.90;73.90
17994;DHT22;9122;48.406;9.984;2023-04-03T19:24:58;5.90;74.30
17994;DHT22;9122;48.406;9.984;2023-04-03T19:27:42;5.90;74.50
17994;DHT22;9122;48.406;9.984;2023-04-03T19:30:26;5.90;74.80
17994;DHT22;9122;48.406;9.984;2023-04-03T19:33:11;6.00;75.20
17994;DHT22;9122;48.406;9.984;2023-04-03T19:35:56;5.80;75.30
17994;DHT22;9122;48.406;9.984;2023-04-03T19:38:40;5.80;75.50
17994;DHT22;9122;48.406;9.984;2023-04-03T19:41:28;5.80;75.60